Time;durP1;ratioP1;P1;durP2;ratioP2;P2;SDS_P1;SDS_P2;PMS_P1;PMS_P2;Temp;Humidity;BMP_temperature;BMP_pressure;BME280_temperature;BME280_humidity;BME280_pressure;Samples;Min_cycle;Max_cycle;Signal;HPM_P1;HPM_P2
2024/02/09 00:00:40;;;;;;;9.50;7.40;;;;;;;-0.68;82.14;98827.80;105872;1253;69975;-75
2024/02/09 00:03:10;;;;;;;7.90;6.30;;;;;;;-0.63;82.19;98827.25;105886;1253;72832;-76
2024/02/09 00:05:38;;;;;;;8.10;6.00;;;;;;;-0.61;82.48;98828.13;105901;1254;60483;-76
2024/02/09 00:08:06;;;;;;;8.50;7.30;;;;;;;-0.65;82.70;98826.04;106023;1253;60417;-75
2024/02/09 00:10:36;;;;;;;10.80;7.50;;;;;;;-0.71;83.00;98822.13;105807;1253;73821;-76
2024/02/09 00:13:05;;;;;;;7.90;6.40;;;;;;;-0.75;83.30;98823.52;106209;1253;70097;-76
2024/02/09 00:15:33;;;;;;;9.80;7.20;;;;;;;-0.75;83.19;98820.41;106515;1254;72743;-76
2024/02/09 00:18:02;;;;;;;8.30;6.60;;;;;;;-0.68;83.17;98820.17;108481;1253;59684;-76
2024/02/09 00:20:31;;;;;;;8.90;6.90;;;;;;;-0.64;83.30;98815.70;108895;1253;59088;-76
2024/02/09 00:22:59;;;;;;;8.20;7.10;;;;;;;-0.64;83.83;98815.18;107235;1253;72999;-75
2024/02/09 00:25:27;;;;;;;9.40;7.40;;;;;;;-0.63;84.05;98816.48;106761;1253;70470;-73
2024/02/09 00:27:54;;;;;;;9.20;7.80;;;;;;;-0.65;84.08;98812.81;105949;1260;71423;-75
2024/02/09 00:30:24;;;;;;;9.70;7.40;;;;;;;-0.59;83.88;98812.00;106160;1254;60852;-76
2024/02/09 00:32:53;;;;;;;11.30;7.50;;;;;;;-0.50;83.65;98805.75;105851;1253;60654;-76
2024/02/09 00:35:23;;;;;;;9.60;7.20;;;;;;;-0.52;83.97;98801.52;105740;1253;72701;-76
2024/02/09 00:38:00;;;;;;;9.50;7.10;;;;;;;-0.56;84.28;98796.45;106002;1257;69057;-76
2024/02/09 00:40:32;;;;;;;8.60;7.10;;;;;;;-0.59;84.29;98794.25;105973;1253;72757;-75
2024/02/09 00:43:03;;;;;;;10.30;8.20;;;;;;;-0.62;84.56;98788.92;106751;1256;60927;-75
2024/02/09 00:45:34;;;;;;;9.40;7.40;;;;;;;-0.54;84.42;98786.03;108147;1253;59444;-74
2024/02/09 00:48:06;;;;;;;9.50;7.00;;;;;;;-0.45;84.18;98784.60;108260;1253;72733;-76
2024/02/09 00:50:34;;;;;;;8.30;7.00;;;;;;;-0.44;84.36;98781.77;106560;1253;68689;-75
2024/02/09 00:53:04;;;;;;;9.90;8.70;;;;;;;-0.47;84.59;98779.21;105714;1254;73835;-75
2024/02/09 00:55:32;;;;;;;10.40;8.70;;;;;;;-0.49;84.93;98776.27;105791;1256;61477;-75
2024/02/09 00:58:00;;;;;;;11.10;8.50;;;;;;;-0.51;85.23;98775.91;105836;1258;60443;-75
2024/02/09 01:00:30;;;;;;;11.70;9.30;;;;;;;-0.52;85.30;98771.63;105836;1258;71904;-75
2024/02/09 01:02:59;;;;;;;12.90;8.80;;;;;;;-0.43;85.09;98766.58;105946;1256;69213;-73
2024/02/09 01:05:27;;;;;;;12.60;9.60;;;;;;;-0.35;84.84;98760.91;106065;1254;72757;-75
2024/02/09 01:07:55;;;;;;;14.90;11.20;;;;;;;-0.40;85.10;98759.22;105809;1258;60517;-75
2024/02/09 01:10:23;;;;;;;14.50;11.30;;;;;;;-0.46;85.42;98754.80;105776;1254;60482;-76
2024/02/09 02:46:45;;;;;;;14.50;11.60;;;;;;;-0.70;87.31;98670.61;105742;1256;60428;-76
2024/02/09 03:05:51;;;;;;;13.70;9.60;;;;;;;-0.91;87.59;98664.11;105758;1253;69950;-74
2024/02/09 03:08:19;;;;;;;11.80;8.90;;;;;;;-0.88;87.28;98663.64;105818;1253;70570;-76
2024/02/09 03:10:50;;;;;;;10.40;9.10;;;;;;;-0.86;87.05;98661.47;106162;1253;60522;-76
2024/02/09 03:13:17;;;;;;;11.50;9.20;;;;;;;-0.93;87.42;98657.64;105908;1254;60495;-77
2024/02/09 03:15:45;;;;;;;13.10;10.90;;;;;;;-1.00;87.87;98657.16;105907;1254;72645;-77
2024/02/09 03:18:17;;;;;;;15.10;11.20;;;;;;;-1.03;88.13;98663.33;106395;1254;70323;-76
2024/02/09 03:20:45;;;;;;;11.50;8.70;;;;;;;-1.05;88.37;98655.48;108781;1253;72620;-76
2024/02/09 03:23:17;;;;;;;8.80;6.60;;;;;;;-0.97;88.12;98644.55;109054;1252;61669;-75
2024/02/09 03:25:44;;;;;;;8.20;6.50;;;;;;;-0.86;87.75;98647.75;106792;1254;60438;-76
2024/02/09 03:28:14;;;;;;;11.40;8.20;;;;;;;-0.89;87.68;98646.23;106095;1254;72566;-75
2024/02/09 03:30:42;;;;;;;8.50;7.30;;;;;;;-0.98;87.74;98635.45;106266;1253;71482;-73
2024/02/09 03:33:11;;;;;;;9.20;7.10;;;;;;;-1.06;87.64;98639.52;106591;1254;71510;-75
2024/02/09 03:35:40;;;;;;;9.20;7.00;;;;;;;-1.11;88.06;98635.73;105923;1254;60978;-75
2024/02/09 03:38:07;;;;;;;9.30;7.20;;;;;;;-1.06;87.70;98631.36;105963;1257;60447;-75
2024/02/09 03:40:35;;;;;;;10.90;8.40;;;;;;;-1.01;87.56;98631.11;105818;1253;72286;-75
2024/02/09 03:43:03;;;;;;;10.70;8.10;;;;;;;-1.05;87.60;98630.38;105771;1257;68905;-74
2024/02/09 03:45:30;;;;;;;11.10;8.50;;;;;;;-1.11;87.81;98621.90;105797;1253;72730;-74
2024/02/09 03:48:00;;;;;;;11.90;7.70;;;;;;;-1.19;88.13;98627.21;105851;1254;60572;-74
2024/02/09 03:50:28;;;;;;;9.60;7.20;;;;;;;-1.25;88.03;98622.77;105858;1253;60493;-75
2024/02/09 03:52:55;;;;;;;10.00;8.00;;;;;;;-1.19;87.87;98619.73;105942;1254;71509;-75
2024/02/09 03:55:23;;;;;;;11.50;8.40;;;;;;;-1.16;88.10;98615.17;105719;1253;70051;-73
2024/02/09 03:57:50;;;;;;;9.30;7.70;;;;;;;-1.22;88.20;98615.42;105671;1257;71290;-75
2024/02/09 04:00:18;;;;;;;9.50;7.20;;;;;;;-1.28;88.57;98613.69;105554;1258;60438;-75
2024/02/09 04:02:46;;;;;;;8.00;6.50;;;;;;;-1.32;88.76;98612.42;105841;1254;219282;-75
2024/02/09 04:06:39;;;;;;;7.20;5.70;;;;;;;-1.26;88.37;98608.08;103032;1293;599538;-76
2024/02/09 04:09:08;;;;;;;7.60;6.20;;;;;;;-1.24;88.34;98605.19;105281;1269;59353;-75
2024/02/09 04:11:56;;;;;;;8.00;6.70;;;;;;;-1.27;88.61;98604.20;105136;1269;59331;-75
2024/02/09 04:14:23;;;;;;;9.20;7.30;;;;;;;-1.34;88.77;98607.83;105143;1264;72334;-75
2024/02/09 04:16:50;;;;;;;10.40;7.60;;;;;;;-1.39;88.92;98607.73;106116;1258;70873;-75
2024/02/09 04:19:22;;;;;;;8.70;7.00;;;;;;;-1.35;88.90;98606.92;106059;1261;157733;-73
2024/02/09 04:21:49;;;;;;;8.90;7.40;;;;;;;-1.27;88.65;98605.27;108240;1254;58825;-75
2024/02/09 04:24:23;;;;;;;9.20;7.10;;;;;;;-1.30;88.85;98608.80;108438;1253;59219;-75
2024/02/09 04:26:51;;;;;;;10.20;7.30;;;;;;;-1.31;89.29;98612.86;106456;1260;69823;-75
2024/02/09 04:29:20;;;;;;;10.00;7.30;;;;;;;-1.32;89.34;98610.19;105958;1260;68890;-76
2024/02/09 04:31:50;;;;;;;8.80;7.80;;;;;;;-1.34;89.49;98609.80;105995;1255;71003;-76
2024/02/09 04:34:17;;;;;;;9.80;7.50;;;;;;;-1.26;89.15;98610.88;105915;1254;59655;-76
2024/02/09 04:36:46;;;;;;;9.40;7.10;;;;;;;-1.17;88.79;98610.39;106082;1254;59617;-74
2024/02/09 04:39:14;;;;;;;10.30;7.60;;;;;;;-1.18;88.88;98611.13;106047;1254;72883;-76
2024/02/09 04:41:43;;;;;;;12.30;8.30;;;;;;;-1.21;89.10;98605.42;105945;1254;68815;-76
2024/02/09 04:44:10;;;;;;;14.00;8.90;;;;;;;-1.25;89.16;98604.59;105884;1254;72344;-77
2024/02/09 04:46:42;;;;;;;14.40;8.50;;;;;;;-1.28;89.27;98603.95;105953;1260;59647;-75
2024/02/09 04:49:10;;;;;;;13.20;9.10;;;;;;;-1.21;88.81;98604.56;106939;1253;60091;-75
2024/02/09 04:51:42;;;;;;;14.10;8.00;;;;;;;-1.14;88.56;98604.25;106454;1258;73342;-76
2024/02/09 04:54:14;;;;;;;12.90;8.20;;;;;;;-1.17;88.87;98604.33;106348;1259;69500;-74
2024/02/09 04:56:41;;;;;;;13.80;8.40;;;;;;;-1.25;89.03;98600.20;105881;1258;72730;-75
2024/02/09 04:59:09;;;;;;;10.90;7.90;;;;;;;-1.29;89.14;98597.10;105808;1259;60186;-75
2024/02/09 05:01:39;;;;;;;11.20;8.40;;;;;;;-1.33;89.32;98594.45;105770;1259;59979;-76
2024/02/09 05:04:11;;;;;;;12.40;8.20;;;;;;;-1.28;88.97;98591.05;105937;1254;71535;-76
2024/02/09 05:06:38;;;;;;;10.90;7.70;;;;;;;-1.21;88.71;98589.80;105855;1254;73079;-76
2024/02/09 05:09:08;;;;;;;9.80;7.20;;;;;;;-1.23;88.84;98590.83;105781;1254;72989;-75
2024/02/09 05:11:37;;;;;;;9.60;7.50;;;;;;;-1.29;88.98;98589.09;106255;1260;59676;-76
2024/02/09 05:14:05;;;;;;;10.20;8.40;;;;;;;-1.36;89.14;98589.98;106575;1257;59565;-76
2024/02/09 05:16:36;;;;;;;10.00;7.40;;;;;;;-1.41;89.31;98593.27;106687;1260;72936;-76
2024/02/09 05:19:04;;;;;;;10.40;7.00;;;;;;;-1.34;89.06;98592.08;105984;1262;69663;-76
2024/02/09 05:21:34;;;;;;;8.80;7.00;;;;;;;-1.28;88.95;98591.90;108065;1254;73454;-74
2024/02/09 05:24:03;;;;;;;10.90;7.50;;;;;;;-1.30;89.20;98596.84;107361;1257;59765;-76
2024/02/09 05:26:30;;;;;;;8.80;7.50;;;;;;;-1.34;89.40;98597.62;107499;1254;60060;-75
2024/02/09 05:29:02;;;;;;;10.60;7.90;;;;;;;-1.36;89.55;98597.77;106042;1260;71465;-77
2024/02/09 05:31:30;;;;;;;11.30;7.80;;;;;;;-1.37;89.63;98600.45;106146;1259;68920;-77
2024/02/09 05:33:58;;;;;;;10.50;7.90;;;;;;;-1.28;89.27;98600.63;105820;1260;71976;-77
2024/02/09 05:36:27;;;;;;;10.40;7.70;;;;;;;-1.19;89.07;98600.23;105801;1260;59708;-77
2024/02/09 05:38:59;;;;;;;11.10;8.10;;;;;;;-1.21;88.98;98597.08;105979;1260;59777;-76
2024/02/09 05:41:26;;;;;;;11.70;9.20;;;;;;;-1.28;88.95;98589.88;106169;1257;74020;-77
2024/02/09 05:43:58;;;;;;;13.20;9.00;;;;;;;-1.34;89.23;98591.94;106027;1257;69190;-76
2024/02/09 05:46:26;;;;;;;13.70;9.40;;;;;;;-1.39;89.44;98598.37;106122;1252;71467;-76
2024/02/09 05:48:55;;;;;;;13.40;10.10;;;;;;;-1.33;89.19;98594.78;106133;1257;60201;-77
2024/02/09 05:51:24;;;;;;;11.40;8.80;;;;;;;-1.23;89.08;98593.27;106810;1253;59544;-75
2024/02/09 05:53:52;;;;;;;18.70;9.10;;;;;;;-1.23;89.08;98594.86;106713;1251;71799;-78
2024/02/09 05:56:21;;;;;;;11.70;9.00;;;;;;;-1.29;89.06;98596.20;106072;1251;69149;-77
2024/02/09 05:58:51;;;;;;;14.10;8.30;;;;;;;-1.33;89.16;98599.48;105871;1257;71950;-77
2024/02/09 06:01:20;;;;;;;15.00;10.00;;;;;;;-1.34;89.16;98602.00;106040;1254;61151;-77
2024/02/09 06:03:48;;;;;;;12.90;8.30;;;;;;;-1.27;88.84;98601.28;106140;1251;59742;-76
2024/02/09 06:06:20;;;;;;;10.60;8.50;;;;;;;-1.28;88.81;98604.61;105931;1251;72110;-76
2024/02/09 06:08:49;;;;;;;;;;;;;;;-1.32;89.06;98608.21;105998;1251;69940;-76
2024/02/09 06:11:16;;;;;;;11.20;8.10;;;;;;;-1.37;89.27;98609.31;105925;1253;71442;-76
2024/02/09 06:13:45;;;;;;;15.30;8.50;;;;;;;-1.42;89.23;98607.95;105822;1257;59630;-76
2024/02/09 06:16:13;;;;;;;10.60;6.20;;;;;;;-1.35;88.99;98602.27;106343;1252;59531;-76
2024/02/09 06:18:44;;;;;;;10.30;7.90;;;;;;;-1.28;88.61;98598.05;106226;1251;72094;-77
2024/02/09 06:21:14;;;;;;;11.20;7.40;;;;;;;-1.32;88.37;98603.39;106804;1257;70183;-76
2024/02/09 06:23:44;;;;;;;10.60;7.40;;;;;;;-1.39;88.63;98607.73;108228;1251;73142;-75
2024/02/09 06:26:16;;;;;;;11.60;8.00;;;;;;;-1.43;88.47;98616.90;108775;1254;58082;-77
2024/02/09 06:28:46;;;;;;;13.10;6.70;;;;;;;-1.44;88.46;98619.38;107390;1254;59650;-76
2024/02/09 06:31:18;;;;;;;12.30;6.90;;;;;;;-1.34;88.22;98617.98;106140;1256;71790;-75
2024/02/09 06:33:49;;;;;;;10.60;7.00;;;;;;;-1.30;88.12;98611.75;106090;1257;70183;-77
2024/02/09 06:36:18;;;;;;;12.60;7.40;;;;;;;-1.35;87.95;98611.09;105937;1254;71651;-77
2024/02/09 06:38:46;;;;;;;12.10;7.30;;;;;;;-1.42;88.03;98602.42;106157;1257;59542;-76
2024/02/09 06:41:13;;;;;;;12.50;7.90;;;;;;;-1.46;88.17;98607.77;106208;1256;60312;-76
2024/02/09 06:43:41;;;;;;;12.10;6.20;;;;;;;-1.42;87.83;98604.82;105968;1251;73068;-74
2024/02/09 06:46:09;;;;;;;9.50;7.70;;;;;;;-1.34;87.56;98599.33;105987;1255;68701;-76
2024/02/09 06:48:36;;;;;;;10.30;7.20;;;;;;;-1.35;87.54;98597.58;105947;1257;71200;-76
2024/02/09 06:51:07;;;;;;;12.50;7.60;;;;;;;-1.42;87.70;98600.29;105961;1253;59726;-76
2024/02/09 06:53:35;;;;;;;13.80;8.40;;;;;;;-1.46;87.69;98604.15;105997;1257;60044;-77
2024/02/09 06:56:03;;;;;;;12.60;8.10;;;;;;;-1.47;87.79;98602.83;105856;1259;73051;-76
2024/02/09 06:58:30;;;;;;;12.80;7.70;;;;;;;-1.40;87.32;98605.70;106179;1251;70634;-76
2024/02/09 07:00:59;;;;;;;10.60;7.80;;;;;;;-1.38;87.18;98604.86;106210;1251;72590;-76
2024/02/09 07:03:28;;;;;;;15.50;7.70;;;;;;;-1.41;87.36;98606.27;106300;1253;59873;-76
2024/02/09 07:06:01;;;;;;;14.80;8.50;;;;;;;-1.44;87.46;98600.13;106200;1253;59661;-76
2024/02/09 07:08:36;;;;;;;12.50;8.10;;;;;;;-1.47;87.36;98594.95;106200;1254;72079;-76
2024/02/09 07:11:04;;;;;;;13.00;8.00;;;;;;;-1.38;87.12;98587.52;106210;1257;70313;-77
2024/02/09 07:13:31;;;;;;;13.00;7.70;;;;;;;-1.28;86.75;98590.09;106297;1254;72901;-76
2024/02/09 07:16:02;;;;;;;11.30;7.60;;;;;;;-1.28;86.82;98589.73;106194;1255;59582;-77
2024/02/09 07:18:31;;;;;;;14.20;8.10;;;;;;;-1.32;86.85;98594.50;106146;1256;59544;-76
2024/02/09 07:20:58;;;;;;;10.70;7.90;;;;;;;-1.35;86.88;98599.80;106452;1254;71861;-76
2024/02/09 07:23:27;;;;;;;11.80;8.20;;;;;;;-1.39;86.93;98607.20;106964;1251;69316;-76
2024/02/09 07:25:56;;;;;;;11.30;7.80;;;;;;;-1.30;86.46;98599.23;108501;1251;72352;-76
2024/02/09 07:28:24;;;;;;;11.60;7.10;;;;;;;-1.18;86.35;98606.60;108321;1254;60195;-77
2024/02/09 07:30:51;;;;;;;12.60;8.50;;;;;;;-1.14;86.47;98597.14;106751;1253;59657;-79
2024/02/09 07:33:21;;;;;;;14.20;9.60;;;;;;;-1.14;86.47;98592.42;107036;1256;73137;-80
2024/02/09 07:35:49;;;;;;;16.40;9.60;;;;;;;-1.16;86.41;98586.30;106573;1251;70444;-78
2024/02/09 07:38:16;;;;;;;19.40;9.00;;;;;;;-1.17;86.32;98585.36;106151;1253;72498;-77
2024/02/09 07:40:44;;;;;;;13.00;8.10;;;;;;;-1.11;85.81;98580.84;106038;1254;60197;-77
2024/02/09 07:43:12;;;;;;;13.30;8.30;;;;;;;-1.06;85.51;98576.95;106262;1251;59945;-78
2024/02/09 07:45:39;;;;;;;12.50;7.60;;;;;;;-1.11;85.34;98575.48;105970;1254;73126;-77
2024/02/09 07:48:07;;;;;;;14.00;8.70;;;;;;;-1.18;85.57;98572.75;105958;1251;69970;-77
2024/02/09 07:50:41;;;;;;;12.40;7.80;;;;;;;-1.23;85.86;98566.00;106649;1251;72331;-77
2024/02/09 07:53:09;;;;;;;12.40;7.80;;;;;;;-1.23;85.96;98566.36;105943;1260;59698;-78
2024/02/09 07:55:36;;;;;;;9.60;7.00;;;;;;;-1.12;85.81;98578.68;106815;1251;59537;-78
2024/02/09 07:58:04;;;;;;;12.10;6.80;;;;;;;-1.04;85.58;98572.47;106484;1251;71799;-76
2024/02/09 08:00:32;;;;;;;9.30;7.60;;;;;;;-1.05;85.55;98567.46;106101;1251;71521;-78
2024/02/09 08:03:00;;;;;;;12.60;7.80;;;;;;;-1.07;85.82;98570.25;106079;1257;72606;-78
2024/02/09 08:05:31;;;;;;;11.10;8.20;;;;;;;-1.07;85.87;98570.66;106147;1251;59672;-77
2024/02/09 08:07:59;;;;;;;14.50;8.00;;;;;;;-1.06;85.96;98572.67;106136;1253;62073;-79
2024/02/09 08:10:27;;;;;;;12.10;7.60;;;;;;;-1.02;85.70;98574.41;106040;1251;71069;-77
2024/02/09 08:12:55;;;;;;;15.90;8.30;;;;;;;-0.91;85.10;98585.15;106210;1251;70398;-77
2024/02/09 08:15:24;;;;;;;11.40;7.70;;;;;;;-0.86;84.90;98582.66;106147;1253;74929;-78
2024/02/09 08:17:52;;;;;;;10.90;7.70;;;;;;;-0.90;84.83;98587.21;105971;1253;60539;-77
2024/02/09 08:20:20;;;;;;;11.30;7.70;;;;;;;-0.96;84.87;98586.78;106406;1251;61650;-77
2024/02/09 08:22:48;;;;;;;10.10;7.00;;;;;;;-1.02;84.78;98596.69;106104;1254;72878;-76
2024/02/09 08:25:16;;;;;;;13.20;8.20;;;;;;;-1.07;84.81;98599.80;107252;1254;68854;-76
2024/02/09 08:27:43;;;;;;;11.90;8.90;;;;;;;-0.99;84.54;98604.27;109086;1252;71371;-78
2024/02/09 08:30:11;;;;;;;11.80;7.30;;;;;;;-0.90;84.45;98597.13;108907;1254;60389;-80
2024/02/09 08:32:40;;;;;;;12.40;8.70;;;;;;;-0.86;84.67;98595.56;107488;1253;60856;-79
2024/02/09 08:35:08;;;;;;;13.60;8.10;;;;;;;-0.86;84.81;98596.91;107522;1251;72575;-80
2024/02/09 08:37:36;;;;;;;11.90;7.30;;;;;;;-0.87;84.69;98596.48;106168;1254;70616;-80
2024/02/09 08:40:05;;;;;;;8.80;6.50;;;;;;;-0.90;84.40;98590.70;106095;1255;73625;-83
2024/02/09 08:42:33;;;;;;;12.10;7.40;;;;;;;-0.85;84.18;98591.81;106746;1251;60466;-82
2024/02/09 08:45:01;;;;;;;9.00;6.10;;;;;;;-0.77;83.96;98594.15;106221;1256;60417;-81
2024/02/09 08:47:29;;;;;;;10.40;7.70;;;;;;;-0.79;84.21;98597.06;106413;1259;74023;-81
2024/02/09 08:49:58;;;;;;;10.80;7.90;;;;;;;-0.83;84.15;98599.33;108088;1252;67856;-81
2024/02/09 08:52:26;;;;;;;11.10;7.40;;;;;;;-0.88;83.99;98592.80;106278;1254;71808;-80
2024/02/09 08:55:01;;;;;;;10.50;7.40;;;;;;;-0.92;83.95;98592.23;106179;1257;60397;-79
2024/02/09 08:57:29;;;;;;;12.40;7.40;;;;;;;-0.83;83.83;98588.36;106082;1251;60450;-80
2024/02/09 08:59:57;;;;;;;10.40;7.40;;;;;;;-0.76;83.90;98583.96;105994;1254;72583;-80
2024/02/09 09:02:24;;;;;;;11.30;8.60;;;;;;;-0.75;83.80;98584.63;106021;1254;70847;-79
2024/02/09 09:04:52;;;;;;;17.20;9.90;;;;;;;-0.78;83.86;98588.17;106035;1254;71267;-80
2024/02/09 09:07:20;;;;;;;14.30;9.10;;;;;;;-0.81;83.87;98597.05;106101;1251;60623;-80
2024/02/09 09:09:48;;;;;;;14.10;8.80;;;;;;;-0.82;84.06;98604.80;107211;1253;60979;-79
2024/02/09 09:12:15;;;;;;;15.20;9.10;;;;;;;-0.77;83.83;98608.22;107905;1251;75739;-78
2024/02/09 09:14:43;;;;;;;16.00;9.10;;;;;;;-0.64;83.63;98608.73;106396;1251;68899;-79
2024/02/09 09:17:10;;;;;;;15.40;9.30;;;;;;;-0.61;83.43;98607.29;106805;1253;71648;-81
2024/02/09 09:19:50;;;;;;;14.30;8.70;;;;;;;-0.61;83.48;98605.84;107552;1252;60479;-78
2024/02/09 09:22:18;;;;;;;12.00;8.00;;;;;;;-0.63;83.23;98602.38;107352;1250;60450;-79
2024/02/09 09:24:47;;;;;;;15.80;9.30;;;;;;;-0.68;83.05;98603.68;108805;1251;74939;-78
2024/02/09 09:27:16;;;;;;;13.60;9.00;;;;;;;-0.72;83.15;98610.58;108639;1250;72148;-80
2024/02/09 09:29:44;;;;;;;13.70;8.50;;;;;;;-0.62;83.03;98609.47;109151;1250;71137;-79
2024/02/09 09:32:12;;;;;;;16.70;8.90;;;;;;;-0.50;82.75;98604.46;107965;1251;60317;-79
2024/02/09 09:34:41;;;;;;;14.10;9.10;;;;;;;-0.47;82.81;98609.13;106637;1252;61905;-78
2024/02/09 09:37:09;;;;;;;13.60;8.40;;;;;;;-0.49;83.04;98613.06;106745;1251;76631;-79
2024/02/09 09:39:37;;;;;;;14.00;8.60;;;;;;;-0.49;83.06;98615.56;106657;1251;72432;-78
2024/02/09 09:42:05;;;;;;;14.40;8.40;;;;;;;-0.49;82.93;98612.58;106490;1251;71553;-78
2024/02/09 09:44:33;;;;;;;9.70;7.40;;;;;;;-0.46;82.73;98603.78;106437;1251;61992;-78
2024/02/09 09:47:01;;;;;;;13.70;8.40;;;;;;;-0.35;82.21;98602.23;106711;1252;61946;-78
2024/02/09 09:49:28;;;;;;;11.80;7.70;;;;;;;-0.30;82.24;98602.82;106819;1251;74193;-77
2024/02/09 09:52:00;;;;;;;12.90;9.10;;;;;;;-0.28;82.56;98603.03;106097;1251;72316;-78
2024/02/09 09:54:29;;;;;;;11.20;8.10;;;;;;;-0.25;82.46;98603.27;106120;1253;71396;-79
2024/02/09 09:56:57;;;;;;;12.40;8.30;;;;;;;-0.23;82.51;98604.48;106042;1258;60431;-78
2024/02/09 09:59:24;;;;;;;13.90;9.30;;;;;;;-0.20;82.23;98602.70;106096;1251;62398;-80
2024/02/09 10:01:52;;;;;;;12.30;8.80;;;;;;;-0.11;81.77;98598.70;106341;1251;72815;-81
2024/02/09 10:04:20;;;;;;;11.00;8.70;;;;;;;-0.03;81.29;98596.55;106234;1251;70914;-78
2024/02/09 10:06:47;;;;;;;14.90;9.00;;;;;;;-0.04;81.21;98603.31;106140;1257;74994;-80
2024/02/09 10:09:16;;;;;;;13.20;9.20;;;;;;;-0.11;81.20;98600.75;106129;1254;60641;-80
2024/02/09 10:11:45;;;;;;;13.50;9.10;;;;;;;-0.15;81.40;98600.00;106259;1251;60523;-79
2024/02/09 10:14:14;;;;;;;12.60;8.50;;;;;;;-0.16;81.37;98600.98;106193;1250;72808;-81
2024/02/09 10:16:44;;;;;;;10.30;7.80;;;;;;;-0.17;81.18;98613.42;107250;1251;70568;-79
2024/02/09 10:19:16;;;;;;;10.60;7.00;;;;;;;-0.11;80.98;98610.35;107009;1259;71209;-81
2024/02/09 10:21:48;;;;;;;11.50;8.10;;;;;;;-0.03;80.68;98617.59;106731;1251;60446;-80
2024/02/09 10:24:25;;;;;;;13.10;8.50;;;;;;;-0.01;80.90;98617.11;107223;1251;60424;-82
2024/02/09 10:26:54;;;;;;;12.30;8.60;;;;;;;-0.04;80.86;98620.52;107959;1251;72481;-80
2024/02/09 10:29:24;;;;;;;12.00;8.30;;;;;;;-0.05;80.88;98630.02;109558;1250;71420;-87
2024/02/09 10:31:53;;;;;;;11.30;7.00;;;;;;;-0.07;80.82;98627.23;109514;1250;73685;-82
2024/02/09 10:34:23;;;;;;;10.40;7.50;;;;;;;-0.07;80.75;98630.34;109028;1255;59919;-83
2024/02/09 10:36:56;;;;;;;8.90;6.00;;;;;;;0.02;80.19;98624.58;108514;1255;59493;-83
2024/02/09 10:39:27;;;;;;;10.20;6.40;;;;;;;0.06;80.16;98625.92;108126;1251;75943;-82
2024/02/09 10:41:54;;;;;;;8.80;6.80;;;;;;;0.03;80.28;98619.80;106412;1250;71745;-82
2024/02/09 10:44:22;;;;;;;10.30;6.80;;;;;;;-0.04;80.19;98617.04;106427;1251;73789;-86
2024/02/09 10:46:50;;;;;;;11.20;7.80;;;;;;;-0.10;80.41;98610.77;108744;1251;59042;-83
2024/02/09 10:49:18;;;;;;;10.60;7.20;;;;;;;-0.14;80.42;98608.84;106895;1250;60336;-86
2024/02/09 10:51:46;;;;;;;10.40;7.30;;;;;;;-0.17;80.39;98603.50;106877;1251;74727;-83
2024/02/09 10:54:24;;;;;;;8.60;6.50;;;;;;;-0.12;80.22;98605.38;107618;1257;68436;-81
2024/02/09 10:56:51;;;;;;;10.10;7.50;;;;;;;-0.06;80.12;98606.71;106937;1256;73534;-83
2024/02/09 10:59:23;;;;;;;9.00;6.80;;;;;;;-0.05;80.28;98605.81;106701;1252;61161;-81
2024/02/09 11:02:06;;;;;;;9.30;6.60;;;;;;;-0.06;80.56;98605.04;106838;1250;60518;-81
2024/02/09 11:04:34;;;;;;;9.20;6.60;;;;;;;-0.09;80.39;98607.52;109013;1250;72542;-85
2024/02/09 11:07:02;;;;;;;9.20;7.70;;;;;;;-0.15;80.23;98613.26;107757;1250;68938;-86
2024/02/09 11:09:32;;;;;;;11.80;7.30;;;;;;;-0.21;80.24;98608.30;107418;1251;72141;-85
2024/02/09 11:12:04;;;;;;;9.70;7.10;;;;;;;-0.16;80.10;98603.08;106785;1252;61853;-85
2024/02/09 11:14:33;;;;;;;8.50;7.00;;;;;;;-0.10;80.10;98601.67;106705;1250;61146;-83
2024/02/09 11:17:06;;;;;;;8.90;7.40;;;;;;;-0.13;80.18;98600.58;109143;1250;72803;-84
2024/02/09 11:19:38;;;;;;;11.20;7.80;;;;;;;-0.15;80.64;98604.67;107429;1251;72343;-82
2024/02/09 11:22:07;;;;;;;10.50;8.40;;;;;;;-0.11;80.87;98606.87;106762;1257;74696;-84
2024/02/09 11:24:35;;;;;;;9.60;7.20;;;;;;;-0.08;80.92;98607.61;106627;1259;60467;-82
2024/02/09 11:27:03;;;;;;;15.00;9.40;;;;;;;-0.06;80.79;98607.13;106639;1257;60434;-83
2024/02/09 11:29:34;;;;;;;14.20;8.50;;;;;;;-0.06;80.47;98608.13;108484;1251;75135;-83
2024/02/09 11:32:02;;;;;;;9.80;7.60;;;;;;;0.02;80.39;98608.33;109345;1251;69510;-85
2024/02/09 11:34:34;;;;;;;10.90;7.80;;;;;;;0.13;80.22;98614.69;108045;1254;71426;-82
2024/02/09 11:37:02;;;;;;;9.70;7.40;;;;;;;0.18;80.36;98615.15;106856;1250;60402;-81
2024/02/09 11:39:34;;;;;;;12.90;8.30;;;;;;;0.18;80.32;98617.60;106767;1250;61008;-81
2024/02/09 11:42:04;;;;;;;9.30;7.30;;;;;;;0.15;80.12;98621.54;108595;1253;72925;-80
2024/02/09 11:44:35;;;;;;;12.80;7.40;;;;;;;0.11;80.06;98618.20;107411;1251;69198;-81
2024/02/09 11:47:04;;;;;;;12.20;8.40;;;;;;;0.02;79.80;98623.83;107350;1254;72767;-82
2024/02/09 11:49:31;;;;;;;10.00;7.10;;;;;;;0.05;79.83;98616.63;106562;1251;60949;-81
2024/02/09 11:52:01;;;;;;;10.50;7.30;;;;;;;0.12;79.89;98616.25;106243;1256;60614;-81
2024/02/09 11:54:29;;;;;;;12.70;7.40;;;;;;;0.06;80.00;98626.84;106293;1251;75943;-80
2024/02/09 11:56:57;;;;;;;11.10;7.50;;;;;;;-0.01;80.48;98634.36;106005;1251;72630;-79
2024/02/09 11:59:25;;;;;;;10.90;7.50;;;;;;;-0.04;80.79;98628.16;106325;1251;71526;-80
2024/02/09 12:01:53;;;;;;;11.80;8.00;;;;;;;-0.06;80.74;98626.04;106159;1252;60473;-81
2024/02/09 12:04:22;;;;;;;11.40;7.50;;;;;;;-0.09;80.75;98632.55;106182;1251;62497;-79
2024/02/09 12:06:49;;;;;;;9.40;5.90;;;;;;;-0.06;80.61;98637.88;106027;1257;74060;-80
2024/02/09 12:09:17;;;;;;;9.60;6.70;;;;;;;0.01;80.45;98644.63;106244;1256;70348;-79
2024/02/09 12:11:48;;;;;;;9.10;5.60;;;;;;;-0.05;80.51;98644.92;106235;1256;74029;-79
2024/02/09 12:14:16;;;;;;;10.20;6.20;;;;;;;-0.14;80.72;98646.95;107001;1252;60832;-79
2024/02/09 12:16:43;;;;;;;11.20;7.60;;;;;;;-0.21;80.92;98641.90;107218;1253;60525;-82
2024/02/09 12:19:12;;;;;;;11.60;7.10;;;;;;;-0.29;80.88;98654.40;107046;1250;75123;-79
2024/02/09 12:21:42;;;;;;;11.80;7.70;;;;;;;-0.35;81.14;98660.16;106571;1256;70408;-79
2024/02/09 12:24:10;;;;;;;12.30;7.20;;;;;;;-0.29;81.26;98657.02;106245;1254;72950;-81
2024/02/09 12:26:38;;;;;;;9.70;7.00;;;;;;;-0.22;81.09;98655.88;105995;1254;61748;-78
2024/02/09 12:29:12;;;;;;;9.80;7.20;;;;;;;-0.25;81.43;98655.26;107456;1251;60383;-80
2024/02/09 12:31:43;;;;;;;9.70;7.30;;;;;;;-0.33;81.60;98651.04;109227;1251;74969;-81
2024/02/09 12:34:13;;;;;;;11.50;7.80;;;;;;;-0.38;81.85;98656.25;109187;1251;69079;-80
2024/02/09 12:36:41;;;;;;;9.30;6.20;;;;;;;-0.41;82.11;98663.36;107293;1253;70320;-79
2024/02/09 12:39:12;;;;;;;10.50;6.50;;;;;;;-0.35;82.20;98659.05;106643;1251;60463;-79
2024/02/09 12:41:40;;;;;;;8.20;6.60;;;;;;;-0.21;82.14;98660.02;106575;1252;60315;-79
2024/02/09 12:44:17;;;;;;;10.80;7.10;;;;;;;-0.17;82.11;98675.41;106991;1251;73992;-79
2024/02/09 12:46:45;;;;;;;12.60;7.30;;;;;;;-0.19;82.34;98673.82;106903;1256;72516;-80
2024/02/09 12:49:19;;;;;;;10.60;7.60;;;;;;;-0.21;82.34;98679.14;106536;1251;72584;-81
2024/02/09 12:51:50;;;;;;;10.30;7.00;;;;;;;-0.23;81.93;98666.80;106914;1257;60534;-79
2024/02/09 12:54:18;;;;;;;11.90;7.70;;;;;;;-0.28;82.11;98670.51;107350;1251;61196;-80
2024/02/09 12:56:46;;;;;;;13.50;7.20;;;;;;;-0.23;81.88;98672.02;106743;1251;75972;-80
2024/02/09 12:59:15;;;;;;;12.20;7.30;;;;;;;-0.14;81.97;98669.05;106707;1256;70855;-81
2024/02/09 13:01:44;;;;;;;13.10;7.60;;;;;;;-0.14;82.03;98660.83;107974;1250;72262;-81
2024/02/09 13:04:12;;;;;;;11.50;7.10;;;;;;;-0.18;81.98;98662.77;108573;1251;60341;-80
2024/02/09 13:06:40;;;;;;;11.20;7.90;;;;;;;-0.23;82.13;98666.78;108192;1251;59537;-81
2024/02/09 13:09:08;;;;;;;11.60;8.40;;;;;;;-0.29;82.10;98665.00;108111;1251;72631;-81
2024/02/09 13:11:36;;;;;;;14.60;8.50;;;;;;;-0.32;82.29;98667.73;106447;1253;68697;-81
2024/02/09 13:14:04;;;;;;;10.70;8.00;;;;;;;-0.25;82.21;98669.34;108117;1251;74912;-81
2024/02/09 13:16:31;;;;;;;15.80;8.50;;;;;;;-0.17;81.91;98671.91;106959;1251;60357;-80
2024/02/09 13:18:59;;;;;;;14.70;9.10;;;;;;;-0.21;82.12;98674.15;106188;1250;61180;-79